Time;durP1;ratioP1;P1;durP2;ratioP2;P2;SDS_P1;SDS_P2;PMS_P1;PMS_P2;Temp;Humidity;BMP_temperature;BMP_pressure;BME280_temperature;BME280_humidity;BME280_pressure;Samples;Min_cycle;Max_cycle;Signal;HPM_P1;HPM_P2
2022/11/18 00:01:05;;;;;;;14.23;11.60;;;;;;;13.18;87.94;100056.97;5034365;28;20507;-73
2022/11/18 00:03:32;;;;;;;13.40;12.17;;;;;;;13.35;87.92;100095.63;5042504;28;20052;-72
2022/11/18 00:05:59;;;;;;;12.90;11.90;;;;;;;13.43;88.30;100120.16;5043372;28;20049;-70
2022/11/18 00:08:25;;;;;;;12.82;11.57;;;;;;;13.44;88.03;100114.25;5036846;28;20049;-66
2022/11/18 00:10:52;;;;;;;15.37;14.00;;;;;;;13.43;88.29;100118.16;5039667;28;20064;-66
2022/11/18 00:16:08;;;;;;;14.57;12.60;;;;;;;13.39;88.78;100121.91;5032120;28;20439;-65
2022/11/18 00:18:35;;;;;;;13.15;11.98;;;;;;;13.34;88.95;100120.06;5043411;28;20055;-65
2022/11/18 00:21:04;;;;;;;16.75;15.50;;;;;;;13.38;88.99;100112.69;5047443;28;20067;-66
2022/11/18 00:23:32;;;;;;;14.32;13.32;;;;;;;13.42;89.16;100105.31;5037601;28;20045;-67
2022/11/18 00:26:13;;;;;;;13.40;12.37;;;;;;;13.39;88.90;100113.50;5038238;28;20045;-67
2022/11/18 00:28:40;;;;;;;13.97;12.90;;;;;;;13.43;88.96;100106.13;5032606;28;20050;-68
2022/11/18 00:31:12;;;;;;;13.32;12.25;;;;;;;13.35;88.73;100096.47;5041232;28;20049;-68
2022/11/18 00:33:39;;;;;;;13.03;12.13;;;;;;;13.39;88.58;100117.13;5037175;28;20479;-67
2022/11/18 00:36:09;;;;;;;12.87;11.83;;;;;;;13.36;88.03;100114.13;5034660;28;21509;-67
2022/11/18 00:38:37;;;;;;;12.27;11.40;;;;;;;13.33;88.05;100118.38;5040646;28;20045;-67
2022/11/18 00:41:13;;;;;;;13.67;12.50;;;;;;;13.28;87.60;100112.88;5043261;28;20049;-66
2022/11/18 00:43:41;;;;;;;13.00;12.05;;;;;;;13.27;87.32;100123.25;5048910;28;20059;-66
2022/11/18 00:46:10;;;;;;;14.43;13.30;;;;;;;13.19;86.80;100100.66;5050938;28;20048;-66
2022/11/18 00:48:37;;;;;;;16.83;15.30;;;;;;;13.20;86.62;100122.81;5040100;28;20049;-66
2022/11/18 00:51:07;;;;;;;14.53;13.23;;;;;;;13.12;86.09;100117.88;5034611;28;20053;-67
2022/11/18 00:53:34;;;;;;;13.70;12.83;;;;;;;13.11;85.95;100121.00;5050114;28;20171;-66
2022/11/18 00:56:01;;;;;;;12.77;11.87;;;;;;;13.07;85.86;100125.56;5032907;28;20148;-67
2022/11/18 00:58:28;;;;;;;13.97;12.77;;;;;;;12.99;85.60;100115.88;5046110;28;20136;-66
2022/11/18 01:00:55;;;;;;;18.63;17.33;;;;;;;12.90;85.86;100107.38;5044568;28;20551;-67
2022/11/18 01:03:24;;;;;;;15.87;14.63;;;;;;;12.94;85.69;100116.00;5034231;28;20057;-67
2022/11/18 01:05:54;;;;;;;13.80;12.70;;;;;;;12.93;86.05;100126.38;5016142;28;20088;-67
2022/11/18 01:08:21;;;;;;;14.43;13.53;;;;;;;12.89;86.35;100119.72;5046594;28;20452;-66
2022/11/18 01:10:49;;;;;;;19.87;18.73;;;;;;;12.86;86.74;100114.72;5032907;28;20136;-66
2022/11/18 01:13:18;;;;;;;14.60;13.30;;;;;;;12.92;86.51;100118.25;5036106;28;20389;-66
2022/11/18 01:15:53;;;;;;;14.75;13.40;;;;;;;12.87;86.57;100115.56;5038395;28;20077;-65
2022/11/18 01:18:22;;;;;;;17.33;15.87;;;;;;;12.88;86.59;100118.03;5033683;28;20128;-65
2022/11/18 01:20:49;;;;;;;15.35;14.10;;;;;;;12.73;86.61;100101.50;5036052;28;20144;-66
2022/11/18 01:23:17;;;;;;;15.00;13.80;;;;;;;12.77;86.42;100108.16;5045997;28;20084;-67
2022/11/18 01:25:46;;;;;;;15.40;13.80;;;;;;;12.69;86.53;100103.25;5046120;28;20041;-66
2022/11/18 01:28:15;;;;;;;17.60;16.33;;;;;;;12.72;86.64;100122.25;5032378;28;20136;-68
2022/11/18 01:30:48;;;;;;;15.53;14.20;;;;;;;12.73;86.92;100113.53;5049753;28;20076;-67
2022/11/18 01:33:16;;;;;;;15.43;14.10;;;;;;;12.78;87.20;100118.22;5052101;28;20128;-67
2022/11/18 01:35:43;;;;;;;14.27;13.13;;;;;;;12.90;87.13;100114.94;5043732;28;20048;-67
2022/11/18 01:38:12;;;;;;;15.93;14.50;;;;;;;12.97;87.30;100118.19;5052164;28;20067;-68
2022/11/18 01:40:40;;;;;;;16.08;13.93;;;;;;;13.00;87.75;100112.78;5037822;28;20488;-68
2022/11/18 01:43:12;;;;;;;14.47;13.37;;;;;;;13.05;87.98;100123.91;5032017;28;20099;-68
2022/11/18 01:45:42;;;;;;;14.27;12.93;;;;;;;13.10;87.99;100130.56;5042456;28;20242;-66
2022/11/18 01:48:19;;;;;;;14.67;13.33;;;;;;;13.03;87.90;100148.63;5041394;28;20053;-67
2022/11/18 01:50:51;;;;;;;13.97;12.80;;;;;;;12.96;88.15;100141.75;5036922;28;21267;-65
2022/11/18 01:53:24;;;;;;;14.17;12.90;;;;;;;12.98;88.22;100142.25;5043090;28;20084;-65
2022/11/18 01:55:54;;;;;;;14.50;13.33;;;;;;;12.94;88.46;100130.81;5034318;28;20068;-65
2022/11/18 01:58:27;;;;;;;14.40;13.40;;;;;;;12.94;88.33;100142.03;5053208;28;20128;-66
2022/11/18 02:00:54;;;;;;;15.63;13.60;;;;;;;13.01;88.68;100142.47;5047046;28;20464;-65
2022/11/18 02:03:22;;;;;;;13.60;12.60;;;;;;;13.04;88.48;100127.84;5048118;28;20045;-66
2022/11/18 02:05:49;;;;;;;13.77;12.77;;;;;;;12.91;87.95;100122.19;5039304;28;20041;-66
2022/11/18 02:08:18;;;;;;;14.00;13.00;;;;;;;12.92;87.80;100129.47;5052132;28;20168;-65
2022/11/18 02:10:44;;;;;;;14.73;13.37;;;;;;;12.88;87.38;100126.44;5044694;28;20053;-65
2022/11/18 02:13:12;;;;;;;16.07;14.07;;;;;;;12.90;87.14;100135.38;5041475;28;20128;-67
2022/11/18 02:16:01;;;;;;;14.53;13.70;;;;;;;12.84;86.98;100132.97;5043202;28;20045;-67
2022/11/18 02:18:31;;;;;;;15.00;13.77;;;;;;;12.88;87.10;100145.22;5035411;28;20053;-66
2022/11/18 02:21:15;;;;;;;14.15;12.98;;;;;;;12.84;87.31;100144.19;5043200;28;20421;-67
2022/11/18 02:24:29;;;;;;;14.10;12.90;;;;;;;12.73;87.51;100149.13;5045423;28;20131;-67
2022/11/18 02:27:11;;;;;;;14.27;13.20;;;;;;;12.86;87.31;100144.72;5026139;28;20050;-67
2022/11/18 02:29:47;;;;;;;13.67;12.73;;;;;;;12.84;87.50;100149.78;5048588;28;20056;-67
2022/11/18 02:32:49;;;;;;;15.03;13.60;;;;;;;12.76;88.07;100154.94;5045283;28;20055;-66
2022/11/18 02:35:30;;;;;;;14.07;13.10;;;;;;;12.92;88.24;100152.75;5035915;28;20077;-67
2022/11/18 02:38:21;;;;;;;13.83;12.80;;;;;;;12.85;88.22;100152.28;5041433;28;20047;-67
2022/11/18 02:40:54;;;;;;;13.30;12.40;;;;;;;12.90;87.66;100143.78;5041586;28;20077;-66
2022/11/18 02:43:27;;;;;;;13.53;12.60;;;;;;;12.87;87.37;100144.41;5039818;28;20061;-67
2022/11/18 02:46:00;;;;;;;16.90;15.53;;;;;;;12.76;87.07;100135.34;5039935;28;20500;-68
2022/11/18 02:48:31;;;;;;;14.97;13.73;;;;;;;12.85;87.05;100152.28;5042834;28;20096;-68
2022/11/18 02:51:00;;;;;;;14.27;13.27;;;;;;;12.78;87.00;100146.22;5039407;28;20045;-68
2022/11/18 02:53:31;;;;;;;14.43;13.32;;;;;;;12.84;86.96;100161.81;5052375;28;20147;-68
2022/11/18 02:56:00;;;;;;;14.47;13.50;;;;;;;12.87;87.05;100160.38;5041420;28;20120;-68
2022/11/18 02:58:27;;;;;;;15.40;14.20;;;;;;;12.86;87.33;100165.16;5033790;28;20128;-67
2022/11/18 03:00:55;;;;;;;14.40;13.27;;;;;;;12.89;87.56;100153.34;5039892;28;20045;-66
2022/11/18 03:03:33;;;;;;;17.57;13.73;;;;;;;12.94;87.47;100178.47;5041424;28;20518;-67
2022/11/18 03:06:18;;;;;;;13.27;12.43;;;;;;;12.83;87.38;100168.56;5037738;28;20045;-68
2022/11/18 03:08:52;;;;;;;14.43;13.13;;;;;;;12.73;87.26;100172.38;5040983;28;20538;-68
2022/11/18 03:11:22;;;;;;;14.63;13.40;;;;;;;12.72;87.29;100170.72;5041378;28;20053;-67
2022/11/18 03:14:07;;;;;;;14.98;13.50;;;;;;;12.72;86.97;100169.88;5035568;28;20041;-67
2022/11/18 03:16:49;;;;;;;14.87;13.07;;;;;;;12.64;86.80;100167.75;5031227;28;20055;-67
2022/11/18 03:19:19;;;;;;;17.10;15.67;;;;;;;12.60;86.52;100172.31;5039209;28;20045;-66
2022/11/18 03:22:00;;;;;;;14.75;13.63;;;;;;;12.50;86.10;100179.72;5041940;28;20427;-67
2022/11/18 03:24:32;;;;;;;16.83;13.20;;;;;;;12.41;85.94;100181.53;5040131;28;20041;-71
2022/11/18 03:27:32;;;;;;;14.33;13.13;;;;;;;12.33;86.38;100188.63;5035940;28;20511;-71
2022/11/18 03:30:07;;;;;;;14.25;13.10;;;;;;;12.35;86.62;100188.34;5033687;28;20492;-71
2022/11/18 03:32:39;;;;;;;13.50;12.60;;;;;;;12.33;87.31;100194.22;5047186;28;20144;-71
2022/11/18 03:35:13;;;;;;;14.80;13.47;;;;;;;12.29;87.13;100183.94;5033243;28;20136;-73
2022/11/18 03:37:41;;;;;;;14.07;12.50;;;;;;;12.26;87.58;100178.94;5033277;28;20076;-72
2022/11/18 03:40:17;;;;;;;13.33;12.23;;;;;;;12.24;87.55;100175.59;5039941;28;20042;-71
2022/11/18 03:42:49;;;;;;;13.30;12.20;;;;;;;12.23;87.77;100179.53;5035251;28;20045;-70
2022/11/18 03:45:31;;;;;;;13.27;12.07;;;;;;;12.22;87.96;100200.28;5042961;28;20044;-71
2022/11/18 03:48:15;;;;;;;19.83;13.27;;;;;;;12.24;87.94;100192.41;5036037;28;20140;-71
2022/11/18 03:50:58;;;;;;;13.80;12.70;;;;;;;12.21;88.02;100188.25;5047094;28;20586;-71
2022/11/18 03:53:29;;;;;;;13.53;12.50;;;;;;;12.13;87.86;100179.69;5033472;28;20403;-69
2022/11/18 03:56:19;;;;;;;14.07;13.13;;;;;;;12.17;87.81;100205.94;5050165;28;20040;-69
2022/11/18 03:58:59;;;;;;;13.83;12.67;;;;;;;12.19;87.33;100201.72;5038237;28;20053;-69
2022/11/18 04:01:50;;;;;;;13.17;12.37;;;;;;;12.07;87.13;100204.97;5047399;28;20052;-70
2022/11/18 04:04:18;;;;;;;12.55;11.85;;;;;;;12.08;87.01;100217.81;5041395;28;20045;-70
2022/11/18 04:06:47;;;;;;;12.50;11.80;;;;;;;12.06;86.50;100222.84;5037138;28;20127;-69
2022/11/18 04:09:19;;;;;;;13.30;12.40;;;;;;;12.01;86.42;100228.53;5035677;28;20053;-70
2022/11/18 04:12:02;;;;;;;13.03;12.23;;;;;;;11.91;86.04;100213.84;5046858;28;20128;-70
2022/11/18 04:14:35;;;;;;;13.47;12.37;;;;;;;11.85;85.82;100218.63;5037385;28;20056;-70
2022/11/18 04:17:28;;;;;;;13.10;12.07;;;;;;;11.69;86.08;100222.69;5048108;28;20049;-70
2022/11/18 04:19:55;;;;;;;13.30;12.57;;;;;;;11.67;85.94;100216.59;5037830;28;20045;-71
2022/11/18 04:22:22;;;;;;;13.00;12.20;;;;;;;11.72;85.69;100219.31;5046430;28;20045;-70
2022/11/18 04:24:49;;;;;;;13.63;12.53;;;;;;;11.69;85.79;100225.50;5034323;28;20045;-66
2022/11/18 04:27:16;;;;;;;13.87;12.83;;;;;;;11.68;85.55;100227.47;5044844;28;20474;-66
2022/11/18 04:29:43;;;;;;;14.60;13.27;;;;;;;11.57;85.47;100207.16;5041464;28;20056;-66
2022/11/18 04:32:09;;;;;;;17.67;16.37;;;;;;;11.66;85.51;100228.88;5040832;28;20049;-66
2022/11/18 04:34:36;;;;;;;17.23;15.77;;;;;;;11.60;85.22;100220.56;5043218;28;20048;-67
2022/11/18 04:37:03;;;;;;;14.93;13.47;;;;;;;11.67;85.27;100233.38;5041558;28;20047;-67
2022/11/18 04:39:30;;;;;;;14.10;12.83;;;;;;;11.59;85.34;100218.06;5035789;28;20046;-66
2022/11/18 04:41:57;;;;;;;12.90;12.00;;;;;;;11.46;85.28;100204.78;5034368;28;20488;-67
2022/11/18 04:44:29;;;;;;;12.77;11.93;;;;;;;11.55;84.76;100219.78;5041131;28;20076;-68
2022/11/18 04:46:58;;;;;;;13.77;12.70;;;;;;;11.59;84.96;100235.69;5036249;28;20064;-67
2022/11/18 04:49:26;;;;;;;14.03;13.13;;;;;;;11.57;84.99;100239.91;5042038;28;20052;-67
2022/11/18 04:51:53;;;;;;;14.73;13.83;;;;;;;11.49;84.93;100244.19;5048907;28;20053;-68
2022/11/18 04:54:20;;;;;;;14.13;12.93;;;;;;;11.53;85.06;100244.41;5041451;28;20136;-68
2022/11/18 04:56:47;;;;;;;14.90;13.80;;;;;;;11.50;84.90;100251.44;5041332;28;20053;-68
2022/11/18 04:59:19;;;;;;;14.13;13.10;;;;;;;11.46;84.97;100252.31;5041158;28;20052;-66
2022/11/18 05:01:47;;;;;;;15.20;13.83;;;;;;;11.46;85.07;100244.75;5036941;28;20045;-66
2022/11/18 05:04:18;;;;;;;14.90;13.30;;;;;;;11.44;84.97;100258.19;5051231;28;20462;-66
2022/11/18 05:06:45;;;;;;;18.73;13.45;;;;;;;11.42;85.07;100254.88;5047808;28;20052;-68
2022/11/18 05:09:12;;;;;;;14.93;13.53;;;;;;;11.38;85.04;100271.41;5037547;28;20135;-67
2022/11/18 05:14:29;;;;;;;14.33;13.33;;;;;;;11.34;85.49;100283.44;5047173;28;20055;-66
2022/11/18 05:16:58;;;;;;;15.83;14.63;;;;;;;11.39;85.81;100289.00;5037418;28;20715;-66
2022/11/18 05:19:25;;;;;;;14.33;13.33;;;;;;;11.45;86.36;100299.00;5042514;28;20110;-67
2022/11/18 05:21:52;;;;;;;15.40;13.97;;;;;;;11.48;86.85;100312.38;5044246;28;20051;-66
2022/11/18 05:24:19;;;;;;;14.20;12.97;;;;;;;11.55;87.27;100310.09;5060094;28;20131;-67
2022/11/18 05:26:46;;;;;;;13.70;12.60;;;;;;;11.40;87.19;100282.28;5065841;28;20148;-68
2022/11/18 05:29:13;;;;;;;14.80;13.30;;;;;;;11.43;87.37;100278.06;5043584;28;20146;-67
2022/11/18 05:31:40;;;;;;;14.57;13.50;;;;;;;11.38;87.51;100267.75;5036476;28;20049;-67
2022/11/18 05:34:07;;;;;;;13.73;12.93;;;;;;;11.49;87.39;100293.69;5035502;28;20050;-67
2022/11/18 05:36:34;;;;;;;12.63;11.83;;;;;;;11.45;87.13;100293.41;5035063;28;20579;-67
2022/11/18 05:39:02;;;;;;;13.40;12.50;;;;;;;11.33;86.58;100296.59;5047664;28;20447;-67
2022/11/18 05:44:14;;;;;;;11.90;11.30;;;;;;;11.18;85.90;100299.50;5066985;28;20485;-67
2022/11/18 05:46:41;;;;;;;12.70;12.00;;;;;;;11.18;85.85;100307.03;5041364;28;20124;-67
2022/11/18 05:49:08;;;;;;;13.43;12.53;;;;;;;11.17;85.65;100310.97;5042661;28;20559;-66
2022/11/18 05:51:35;;;;;;;12.13;11.33;;;;;;;11.14;85.36;100310.44;5029737;28;20057;-66
2022/11/18 05:54:06;;;;;;;13.17;12.43;;;;;;;11.09;85.04;100306.84;5053266;28;20128;-67
2022/11/18 05:56:43;;;;;;;13.17;12.47;;;;;;;11.07;84.85;100320.25;5039204;28;20053;-67
2022/11/18 05:59:11;;;;;;;13.00;12.00;;;;;;;11.09;84.81;100320.81;5050996;28;20049;-68
2022/11/18 06:02:02;;;;;;;13.00;12.00;;;;;;;10.96;84.66;100313.91;5048715;28;20044;-69
2022/11/18 06:04:38;;;;;;;12.70;11.80;;;;;;;10.99;84.44;100318.09;5047140;28;20133;-68
2022/11/18 06:07:14;;;;;;;13.17;12.30;;;;;;;10.93;84.33;100319.22;5041903;28;20057;-68
2022/11/18 06:09:44;;;;;;;13.00;12.17;;;;;;;10.90;84.23;100321.47;5034970;28;20099;-72
2022/11/18 06:12:14;;;;;;;13.15;12.45;;;;;;;10.90;84.10;100320.63;5037441;28;20072;-73
2022/11/18 06:14:55;;;;;;;13.60;12.80;;;;;;;10.91;84.22;100339.09;5040204;28;20423;-74
2022/11/18 06:17:31;;;;;;;13.70;12.83;;;;;;;10.90;84.26;100340.19;5047003;28;20080;-72
2022/11/18 06:19:58;;;;;;;14.67;13.50;;;;;;;10.89;84.22;100341.31;5044216;28;20132;-72
2022/11/18 06:22:25;;;;;;;14.07;13.10;;;;;;;10.91;84.28;100345.50;5038288;28;20136;-71
2022/11/18 06:24:52;;;;;;;14.07;13.27;;;;;;;10.86;84.21;100339.94;5041610;28;20041;-70
2022/11/18 06:27:20;;;;;;;14.10;13.20;;;;;;;10.88;84.35;100350.84;5048838;28;20056;-70
2022/11/18 06:29:47;;;;;;;13.93;12.83;;;;;;;10.92;84.28;100363.09;5051175;28;20064;-66
2022/11/18 06:32:13;;;;;;;15.60;14.40;;;;;;;10.78;84.41;100343.34;5047943;28;20140;-65
2022/11/18 06:34:40;;;;;;;14.07;13.13;;;;;;;10.93;84.63;100373.16;5043598;28;20053;-65
2022/11/18 06:37:13;;;;;;;13.77;12.93;;;;;;;10.97;84.51;100377.03;5042830;28;20076;-65
2022/11/18 06:39:40;;;;;;;14.43;13.33;;;;;;;10.91;84.81;100364.22;5046062;28;20056;-68
2022/11/18 06:42:07;;;;;;;18.23;16.93;;;;;;;10.99;84.91;100380.38;5042747;28;20470;-67
2022/11/18 06:44:33;;;;;;;15.07;14.07;;;;;;;10.93;84.88;100387.13;5043803;28;20564;-68
2022/11/18 06:47:02;;;;;;;17.63;16.40;;;;;;;10.93;84.76;100395.50;5042615;28;20064;-68
2022/11/18 06:49:29;;;;;;;15.63;14.53;;;;;;;10.97;84.66;100404.13;5035081;28;20139;-69
2022/11/18 06:51:56;;;;;;;15.23;13.93;;;;;;;10.93;84.90;100398.28;5042112;28;20596;-68
2022/11/18 06:54:23;;;;;;;17.17;16.07;;;;;;;10.97;84.88;100412.53;5042111;28;21843;-67
2022/11/18 06:56:49;;;;;;;18.87;17.53;;;;;;;11.00;85.33;100414.75;5036329;28;20471;-67
2022/11/18 06:59:22;;;;;;;17.40;15.70;;;;;;;11.08;85.62;100422.56;5041373;28;20059;-65
2022/11/18 07:01:51;;;;;;;15.83;14.63;;;;;;;11.14;86.06;100424.16;5043149;28;20450;-72
2022/11/18 07:04:19;;;;;;;16.48;15.30;;;;;;;11.14;86.53;100418.56;5034108;28;20046;-80
2022/11/18 07:06:46;;;;;;;16.50;15.23;;;;;;;11.07;86.24;100402.13;5047494;28;20547;-71
2022/11/18 07:09:13;;;;;;;18.23;16.53;;;;;;;11.33;86.19;100438.34;5040529;28;20510;-68
2022/11/18 07:11:40;;;;;;;17.73;16.07;;;;;;;11.34;85.98;100446.41;5038523;28;20042;-66
2022/11/18 07:14:08;;;;;;;18.20;16.60;;;;;;;11.38;85.41;100446.69;5043464;28;20052;-65
2022/11/18 07:16:35;;;;;;;19.10;17.40;;;;;;;11.36;85.30;100452.56;5032128;28;20299;-69
2022/11/18 07:19:11;;;;;;;20.23;18.43;;;;;;;11.27;85.01;100445.06;5045044;28;20053;-65
2022/11/18 07:21:39;;;;;;;21.40;19.37;;;;;;;11.28;84.98;100449.53;5053271;28;20055;-64
2022/11/18 07:24:08;;;;;;;20.30;18.47;;;;;;;11.24;84.68;100440.88;5038787;28;20108;-64
2022/11/18 07:26:35;;;;;;;19.75;18.02;;;;;;;11.09;84.50;100433.44;5040997;28;20107;-64
2022/11/18 07:29:03;;;;;;;19.80;18.40;;;;;;;11.17;84.52;100440.38;5043741;28;20050;-64
2022/11/18 07:31:30;;;;;;;24.50;22.33;;;;;;;11.23;84.36;100460.75;5041346;28;20137;-64
2022/11/18 07:33:57;;;;;;;24.43;22.23;;;;;;;11.20;84.41;100464.94;5039942;28;20051;-65
2022/11/18 07:36:27;;;;;;;26.23;24.20;;;;;;;11.18;84.43;100471.94;5042643;28;20060;-64
2022/11/18 07:39:02;;;;;;;22.73;20.43;;;;;;;11.15;84.69;100479.78;5038366;28;20550;-63
2022/11/18 07:41:29;;;;;;;24.53;22.13;;;;;;;11.08;84.80;100473.69;5036972;28;20127;-64
2022/11/18 07:43:59;;;;;;;26.37;20.60;;;;;;;11.11;84.60;100478.69;5038449;28;20102;-64
2022/11/18 07:46:29;;;;;;;;;;;;;;;10.88;86.08;100480.19;5041654;28;20053;-64
2022/11/18 07:48:58;;;;;;;23.13;21.03;;;;;;;11.11;85.60;100487.09;5046488;28;20007;-64
2022/11/18 07:51:27;;;;;;;24.60;22.10;;;;;;;11.18;85.85;100488.72;5039709;28;20053;-62
2022/11/18 07:53:54;;;;;;;23.73;17.97;;;;;;;11.21;86.01;100479.75;5039789;28;20049;-63
2022/11/18 07:56:22;;;;;;;20.43;17.70;;;;;;;11.26;85.94;100479.75;5041344;28;20480;-62
2022/11/18 07:58:53;;;;;;;20.33;16.80;;;;;;;11.33;86.15;100475.50;5042397;28;20143;-64
2022/11/18 08:01:23;;;;;;;18.30;16.60;;;;;;;11.46;86.40;100490.00;5033378;28;20045;-63
2022/11/18 08:03:51;;;;;;;;;;;;;;;11.39;87.58;100490.31;5036477;28;20555;-63
2022/11/18 08:06:18;;;;;;;16.77;15.37;;;;;;;11.79;87.18;100493.97;5035606;28;19921;-68
2022/11/18 08:08:46;;;;;;;22.60;20.47;;;;;;;12.17;87.74;100500.72;5040334;28;20092;-67
2022/11/18 08:11:18;;;;;;;21.33;17.17;;;;;;;12.46;88.29;100497.09;5042155;28;20080;-68
2022/11/18 08:13:50;;;;;;;17.93;16.43;;;;;;;12.90;89.06;100519.34;5045373;28;20057;-68
2022/11/18 08:16:22;;;;;;;19.10;17.50;;;;;;;13.33;90.22;100527.84;5035781;28;20464;-69
2022/11/18 08:18:49;;;;;;;16.30;15.23;;;;;;;13.60;90.90;100501.13;5041227;28;20488;-69
2022/11/18 08:21:18;;;;;;;20.20;18.60;;;;;;;14.03;90.87;100537.56;5036042;28;20727;-70
2022/11/18 08:23:53;;;;;;;21.55;20.05;;;;;;;14.27;90.74;100541.09;5049834;28;20084;-70
2022/11/18 08:26:20;;;;;;;14.70;13.70;;;;;;;14.58;90.36;100540.63;5037373;28;20057;-63
2022/11/18 08:28:47;;;;;;;15.40;14.50;;;;;;;14.93;91.37;100541.94;5034712;28;20041;-63
2022/11/18 08:31:26;;;;;;;13.25;12.20;;;;;;;15.38;92.41;100543.03;5042726;28;20049;-64
2022/11/18 08:33:56;;;;;;;15.27;14.27;;;;;;;15.91;94.50;100543.59;5045623;28;20132;-64
2022/11/18 08:36:26;;;;;;;16.67;15.45;;;;;;;16.25;95.05;100543.91;5049017;28;20132;-64
2022/11/18 08:38:58;;;;;;;16.30;15.50;;;;;;;16.41;95.13;100541.56;5044941;28;20052;-63
2022/11/18 08:41:34;;;;;;;11.32;10.48;;;;;;;16.66;94.57;100553.34;5037644;28;20511;-64
2022/11/18 08:44:01;;;;;;;11.05;10.35;;;;;;;16.97;95.28;100559.03;5036255;28;20064;-63
2022/11/18 08:46:29;;;;;;;11.70;10.90;;;;;;;17.20;95.08;100557.81;5041006;28;20128;-63
2022/11/18 08:48:56;;;;;;;12.80;11.90;;;;;;;17.58;95.44;100559.28;5037251;28;20147;-63
2022/11/18 08:51:24;;;;;;;11.85;10.93;;;;;;;18.03;94.85;100576.03;5032946;28;20049;-63
2022/11/18 08:53:51;;;;;;;14.60;13.48;;;;;;;18.51;94.85;100590.03;5043732;28;20125;-64
2022/11/18 08:56:20;;;;;;;11.82;11.02;;;;;;;18.97;94.03;100582.81;5043999;28;20128;-64
2022/11/18 08:58:47;;;;;;;10.60;10.10;;;;;;;19.73;94.75;100590.56;5035678;28;20531;-64
2022/11/18 09:01:13;;;;;;;9.90;9.20;;;;;;;20.40;94.22;100597.28;5040521;28;20294;-64
2022/11/18 09:03:41;;;;;;;9.73;9.15;;;;;;;20.38;91.20;100602.50;5041988;28;20052;-63
2022/11/18 09:06:13;;;;;;;11.35;10.65;;;;;;;19.77;88.66;100593.56;5052309;28;20052;-64
2022/11/18 09:08:41;;;;;;;12.38;11.48;;;;;;;19.60;89.17;100612.25;5041165;28;20049;-63
2022/11/18 09:11:13;;;;;;;12.50;11.63;;;;;;;19.13;86.20;100611.44;5035858;28;20133;-63
2022/11/18 09:13:41;;;;;;;12.48;11.70;;;;;;;18.07;81.64;100597.63;5042966;28;20168;-64
2022/11/18 09:16:30;;;;;;;12.43;11.63;;;;;;;16.98;81.75;100605.81;5035313;28;20053;-63
2022/11/18 09:18:58;;;;;;;13.85;12.75;;;;;;;16.40;82.66;100617.94;5043387;28;20053;-63
2022/11/18 09:21:45;;;;;;;12.20;11.50;;;;;;;15.77;83.46;100617.66;5043055;28;20048;-63
2022/11/18 09:24:12;;;;;;;12.55;11.77;;;;;;;15.39;84.25;100612.22;5028170;28;20570;-63
2022/11/18 09:26:39;;;;;;;15.93;15.23;;;;;;;16.06;92.13;100619.28;5047198;28;20378;-63
2022/11/18 09:29:07;;;;;;;11.23;10.57;;;;;;;17.57;97.13;100626.19;5050263;28;20059;-63
2022/11/18 09:31:34;;;;;;;9.55;8.60;;;;;;;18.97;97.47;100611.13;5043596;28;20071;-63
2022/11/18 09:34:01;;;;;;;8.88;8.18;;;;;;;19.47;94.15;100629.47;5048555;28;20132;-63
2022/11/18 09:36:28;;;;;;;10.77;10.07;;;;;;;20.63;94.71;100620.50;5035286;28;20136;-63
2022/11/18 09:38:55;;;;;;;9.07;8.63;;;;;;;21.50;91.57;100629.00;5046978;28;20049;-63
2022/11/18 09:41:43;;;;;;;6.35;6.03;;;;;;;21.67;88.75;100625.06;5038504;28;20049;-63
2022/11/18 09:45:01;;;;;;;7.93;7.22;;;;;;;22.42;93.08;100624.69;5039641;28;20140;-63
2022/11/18 09:47:32;;;;;;;9.63;9.02;;;;;;;21.94;86.23;100632.06;5023224;28;20132;-63
2022/11/18 09:50:03;;;;;;;9.98;9.35;;;;;;;22.45;85.43;100629.66;5028370;28;20563;-63
2022/11/18 09:53:06;;;;;;;9.35;8.75;;;;;;;23.36;87.65;100629.09;5040638;28;20049;-63
2022/11/18 09:55:37;;;;;;;11.32;10.40;;;;;;;24.15;83.13;100636.84;5046761;28;20548;-63
2022/11/18 09:58:05;;;;;;;9.77;9.18;;;;;;;24.92;82.01;100624.69;5038317;28;20053;-64
2022/11/18 10:00:33;;;;;;;11.85;11.00;;;;;;;25.48;79.88;100631.97;5042755;28;20084;-63
2022/11/18 10:02:59;;;;;;;11.27;10.50;;;;;;;26.02;79.46;100636.63;5037614;28;20148;-64
2022/11/18 10:05:35;;;;;;;11.40;10.70;;;;;;;26.56;79.64;100626.81;5032453;28;20287;-63
2022/11/18 10:08:14;;;;;;;12.00;11.40;;;;;;;26.98;77.31;100628.59;5034939;28;20050;-64
2022/11/18 10:10:59;;;;;;;11.93;11.32;;;;;;;27.38;78.66;100625.00;5035904;28;20050;-63
2022/11/18 10:13:28;;;;;;;11.45;10.75;;;;;;;27.80;76.08;100632.38;5035515;28;20053;-65
2022/11/18 10:16:15;;;;;;;11.38;10.68;;;;;;;28.01;76.97;100637.47;5040274;28;20330;-65
2022/11/18 10:19:05;;;;;;;11.32;10.55;;;;;;;27.91;79.95;100637.41;5045297;28;20045;-65
2022/11/18 10:22:00;;;;;;;11.10;10.32;;;;;;;28.24;80.04;100642.16;5036080;28;20064;-65
2022/11/18 10:24:31;;;;;;;9.73;9.10;;;;;;;28.30;72.93;100638.50;5035385;28;20060;-64
2022/11/18 10:26:59;;;;;;;10.80;10.10;;;;;;;27.22;71.06;100647.34;5047216;28;20049;-65
2022/11/18 10:29:26;;;;;;;10.35;9.55;;;;;;;25.85;71.60;100649.41;5048883;28;20056;-64
2022/11/18 10:32:07;;;;;;;11.23;10.40;;;;;;;24.56;74.75;100658.22;5044044;28;20052;-64
2022/11/18 10:34:52;;;;;;;11.73;10.98;;;;;;;23.31;74.94;100655.00;5039285;28;20137;-64
2022/11/18 10:37:25;;;;;;;10.43;9.73;;;;;;;22.20;73.85;100653.66;5049953;28;20102;-65
2022/11/18 10:40:24;;;;;;;12.27;11.48;;;;;;;21.13;76.72;100652.75;5045697;28;20055;-65
2022/11/18 10:42:52;;;;;;;;;;;;;;;20.39;84.96;100658.03;5034737;28;20077;-64
2022/11/18 10:45:22;;;;;;;9.93;9.32;;;;;;;20.72;80.50;100657.31;5043185;28;19927;-65
2022/11/18 10:48:07;;;;;;;;;;;;;;;20.52;86.58;100656.97;5039644;28;20053;-65
2022/11/18 10:50:44;;;;;;;11.05;10.32;;;;;;;20.39;81.69;100660.88;5042779;28;19956;-65
2022/11/18 10:53:35;;;;;;;10.60;9.85;;;;;;;21.09;87.13;100646.94;5043717;28;20045;-64
2022/11/18 10:56:07;;;;;;;11.45;10.88;;;;;;;21.81;81.92;100656.00;5038444;28;20092;-64
2022/11/18 10:58:42;;;;;;;10.30;9.40;;;;;;;21.66;81.14;100648.19;5050977;28;20131;-65
2022/11/18 11:01:17;;;;;;;9.73;9.23;;;;;;;21.72;81.91;100655.28;5044678;28;20280;-66
2022/11/18 11:04:01;;;;;;;11.60;10.60;;;;;;;21.74;81.72;100661.44;5048556;28;20500;-64
2022/11/18 11:06:31;;;;;;;11.52;10.52;;;;;;;22.28;81.33;100631.97;5048851;28;20568;-65
2022/11/18 11:09:01;;;;;;;;;;;;;;;23.95;91.64;100661.59;5034234;28;20140;-65
2022/11/18 11:11:27;;;;;;;;;;;;;;;25.56;91.82;100670.09;5041222;28;19975;-64
2022/11/18 11:14:02;;;;;;;11.13;10.52;;;;;;;26.49;81.09;100661.06;5036284;28;19968;-64
2022/11/18 11:16:30;;;;;;;10.15;9.38;;;;;;;27.47;76.20;100659.06;5039408;28;20136;-64
2022/11/18 11:19:01;;;;;;;11.82;11.05;;;;;;;28.29;73.56;100665.56;5050944;28;20048;-64
2022/11/18 11:21:28;;;;;;;13.38;12.57;;;;;;;29.09;68.55;100666.91;5051230;28;20411;-64
2022/11/18 11:23:55;;;;;;;11.43;10.80;;;;;;;29.43;65.03;100659.63;5041820;28;20065;-64
2022/11/18 11:26:50;;;;;;;14.15;13.30;;;;;;;30.06;67.01;100656.44;5036303;28;20068;-64
2022/11/18 11:29:46;;;;;;;11.18;10.57;;;;;;;30.96;60.61;100646.41;5035150;28;20088;-64
2022/11/18 11:32:42;;;;;;;13.00;12.25;;;;;;;31.30;58.57;100649.56;5035218;28;20049;-65
2022/11/18 11:35:29;;;;;;;11.85;11.00;;;;;;;31.60;55.42;100646.09;5051023;28;20049;-65
2022/11/18 11:38:05;;;;;;;11.63;10.73;;;;;;;31.83;50.84;100648.41;5033976;28;20057;-65
2022/11/18 11:40:58;;;;;;;13.63;12.82;;;;;;;32.03;48.70;100648.66;5036352;28;20057;-65
2022/11/18 11:43:55;;;;;;;11.23;10.52;;;;;;;31.67;48.21;100653.88;5035047;28;20053;-65